createdAt,value
2023-03-18T00:00:32.662Z,99.90
2023-03-18T00:03:00.149Z,99.90
2023-03-18T00:05:27.369Z,99.90
2023-03-18T00:07:54.188Z,99.90
2023-03-18T00:10:21.012Z,99.90
2023-03-18T00:12:48.130Z,99.90
2023-03-18T00:15:18.166Z,99.90
2023-03-18T00:17:46.711Z,99.90
2023-03-18T00:20:16.877Z,99.90
2023-03-18T00:22:45.350Z,99.90
2023-03-18T00:25:15.353Z,99.90
2023-03-18T00:27:42.202Z,99.90
2023-03-18T00:30:10.192Z,99.90
2023-03-18T00:32:37.119Z,99.90
2023-03-18T00:35:04.671Z,99.90
2023-03-18T00:37:33.504Z,99.90
2023-03-18T00:40:06.508Z,99.90
2023-03-18T00:42:47.370Z,99.90
2023-03-18T00:45:17.101Z,99.90
2023-03-18T00:47:44.766Z,99.90
2023-03-18T00:50:12.488Z,99.90
2023-03-18T00:52:39.627Z,99.90
2023-03-18T00:55:07.510Z,99.90
2023-03-18T00:57:34.529Z,99.90
2023-03-18T01:00:01.625Z,99.90
2023-03-18T01:02:30.112Z,99.90
2023-03-18T01:04:57.950Z,99.90
2023-03-18T01:07:25.555Z,99.90
2023-03-18T01:09:52.749Z,99.90
2023-03-18T01:12:19.675Z,99.90
2023-03-18T01:14:46.991Z,99.90
2023-03-18T01:17:13.966Z,99.90
2023-03-18T01:19:40.990Z,99.90
2023-03-18T01:22:08.255Z,99.90
2023-03-18T01:24:36.554Z,99.90
2023-03-18T01:27:04.155Z,99.90
2023-03-18T01:29:31.052Z,99.90
2023-03-18T01:31:57.904Z,99.90
2023-03-18T01:34:25.157Z,99.90
2023-03-18T01:36:53.884Z,99.90
2023-03-18T01:39:21.311Z,99.90
2023-03-18T01:41:48.946Z,99.90
2023-03-18T01:44:23.540Z,99.90
2023-03-18T01:46:53.026Z,99.90
2023-03-18T01:49:27.654Z,99.90
2023-03-18T01:52:32.010Z,99.90
2023-03-18T01:55:10.490Z,99.90
2023-03-18T01:57:38.292Z,99.90
2023-03-18T02:00:06.868Z,99.90
2023-03-18T02:02:33.944Z,99.90
2023-03-18T02:05:06.314Z,99.90
2023-03-18T02:07:35.674Z,99.90
2023-03-18T02:10:13.320Z,99.90
2023-03-18T02:12:50.783Z,99.90
2023-03-18T02:15:22.625Z,99.90
2023-03-18T02:18:03.006Z,99.90
2023-03-18T02:21:31.071Z,99.90
2023-03-18T02:24:19.308Z,99.90
2023-03-18T02:27:05.130Z,99.90
2023-03-18T02:29:37.223Z,99.90
2023-03-18T02:32:07.946Z,99.90
2023-03-18T02:34:38.259Z,99.90
2023-03-18T02:37:07.842Z,99.90
2023-03-18T02:39:35.717Z,99.90
2023-03-18T02:42:03.015Z,99.90
2023-03-18T02:44:30.444Z,99.90
2023-03-18T02:47:11.593Z,99.90
2023-03-18T02:49:38.444Z,99.90
2023-03-18T02:52:05.787Z,99.90
2023-03-18T02:54:32.835Z,99.90
2023-03-18T02:57:00.424Z,99.90
2023-03-18T02:59:27.640Z,99.90
2023-03-18T03:01:55.739Z,99.90
2023-03-18T03:04:25.538Z,99.90
2023-03-18T03:06:56.670Z,99.90
2023-03-18T03:09:24.095Z,99.90
2023-03-18T03:11:51.518Z,99.90
2023-03-18T03:14:18.390Z,99.90
2023-03-18T03:16:45.418Z,99.90
2023-03-18T03:19:12.280Z,99.90
2023-03-18T03:21:39.301Z,99.90
2023-03-18T03:24:07.637Z,99.90
2023-03-18T03:26:35.038Z,99.90
2023-03-18T03:29:04.718Z,99.90
2023-03-18T03:31:31.780Z,99.90
2023-03-18T03:33:59.480Z,99.90
2023-03-18T03:36:28.850Z,99.90
2023-03-18T03:38:55.782Z,99.90
2023-03-18T03:41:22.668Z,99.90
2023-03-18T03:43:49.847Z,99.90
2023-03-18T03:46:16.825Z,99.90
2023-03-18T03:48:43.911Z,99.90
2023-03-18T03:51:10.990Z,99.90
2023-03-18T03:53:38.227Z,99.90
2023-03-18T03:56:07.629Z,99.90
2023-03-18T03:58:35.552Z,99.90
2023-03-18T04:01:02.831Z,99.90
2023-03-18T04:03:29.931Z,99.90
2023-03-18T04:05:57.331Z,99.90
2023-03-18T04:08:24.179Z,99.90
2023-03-18T04:10:51.005Z,99.90
2023-03-18T04:13:17.987Z,99.90
2023-03-18T04:15:45.141Z,99.90
2023-03-18T04:18:12.133Z,99.90
2023-03-18T04:20:39.308Z,99.90
2023-03-18T04:23:07.389Z,99.90
2023-03-18T04:25:35.318Z,99.90
2023-03-18T04:28:03.154Z,99.90
2023-03-18T04:30:30.783Z,99.90
2023-03-18T04:32:59.695Z,99.90
2023-03-18T04:35:27.240Z,99.90
2023-03-18T04:37:54.675Z,99.90
2023-03-18T04:40:21.789Z,99.90
2023-03-18T04:42:48.722Z,99.90
2023-03-18T04:45:16.482Z,99.90
2023-03-18T04:47:45.230Z,99.90
2023-03-18T04:50:13.805Z,99.90
2023-03-18T04:52:42.193Z,99.90
2023-03-18T04:55:10.720Z,99.90
2023-03-18T04:57:38.764Z,99.90
2023-03-18T05:00:14.803Z,99.90
2023-03-18T05:02:41.809Z,99.90
2023-03-18T05:05:10.718Z,99.90
2023-03-18T05:07:37.845Z,99.90
2023-03-18T05:10:07.366Z,99.90
2023-03-18T05:12:34.807Z,99.90
2023-03-18T05:15:01.881Z,99.90
2023-03-18T05:17:28.754Z,99.90
2023-03-18T05:19:56.358Z,99.90
2023-03-18T05:22:23.657Z,99.90
2023-03-18T05:24:50.866Z,99.90
2023-03-18T05:27:19.596Z,99.90
2023-03-18T05:29:46.579Z,99.90
2023-03-18T05:32:14.834Z,99.90
2023-03-18T05:34:42.893Z,99.90
2023-03-18T05:37:12.897Z,99.90
2023-03-18T05:39:42.501Z,99.90
2023-03-18T05:42:11.519Z,99.90
2023-03-18T05:44:40.260Z,99.90
2023-03-18T05:47:07.776Z,99.90
2023-03-18T05:49:34.976Z,99.90
2023-03-18T05:52:02.905Z,99.90
2023-03-18T05:54:29.875Z,99.90
2023-03-18T05:56:56.893Z,99.90
2023-03-18T05:59:25.192Z,99.90
2023-03-18T06:01:53.816Z,99.90
2023-03-18T06:04:21.008Z,99.90
2023-03-18T06:06:48.292Z,99.90
2023-03-18T06:09:16.526Z,99.90
2023-03-18T06:11:44.588Z,99.90
2023-03-18T06:14:12.729Z,99.90
2023-03-18T06:16:41.848Z,99.90
2023-03-18T06:19:10.823Z,99.90
2023-03-18T06:21:39.726Z,99.90
2023-03-18T06:24:07.982Z,99.90
2023-03-18T06:26:35.358Z,99.90
2023-03-18T06:29:04.021Z,99.90
2023-03-18T06:31:31.306Z,99.90
2023-03-18T06:34:00.820Z,99.90
2023-03-18T06:36:28.074Z,99.90
2023-03-18T06:38:55.967Z,99.90
2023-03-18T06:41:22.872Z,99.90
2023-03-18T06:43:50.622Z,99.90
2023-03-18T06:46:18.398Z,99.90
2023-03-18T06:48:45.944Z,99.90
2023-03-18T06:51:13.484Z,99.90
2023-03-18T06:53:40.379Z,99.90
2023-03-18T06:56:08.141Z,99.90
2023-03-18T06:58:34.987Z,99.90
2023-03-18T07:01:02.884Z,99.90
2023-03-18T07:03:30.006Z,99.90
2023-03-18T07:05:57.305Z,99.90
2023-03-18T07:08:24.845Z,99.90
2023-03-18T07:10:55.272Z,99.90
2023-03-18T07:13:23.919Z,99.90
2023-03-18T07:15:51.044Z,99.90
2023-03-18T07:18:18.009Z,99.90
2023-03-18T07:20:44.836Z,99.90
2023-03-18T07:23:11.795Z,99.90
2023-03-18T07:25:38.978Z,99.90
2023-03-18T07:28:05.943Z,99.90
2023-03-18T07:30:34.047Z,99.90
2023-03-18T07:33:01.251Z,99.90
2023-03-18T07:35:28.808Z,99.90
2023-03-18T07:37:56.767Z,99.90
2023-03-18T07:40:24.835Z,99.90
2023-03-18T07:42:52.074Z,99.90
2023-03-18T07:45:19.357Z,99.90
2023-03-18T07:47:47.270Z,99.90
2023-03-18T07:50:14.908Z,99.90
2023-03-18T07:52:42.019Z,99.90
2023-03-18T07:55:09.336Z,99.90
2023-03-18T07:57:36.813Z,99.90
2023-03-18T08:00:07.482Z,99.90
2023-03-18T08:02:36.158Z,99.90
2023-03-18T08:05:06.854Z,99.90
2023-03-18T08:07:35.566Z,99.90
2023-03-18T08:10:03.305Z,99.90
2023-03-18T08:12:41.585Z,99.90
2023-03-18T08:15:17.769Z,99.90
2023-03-18T08:17:44.628Z,99.90
2023-03-18T08:20:12.464Z,99.90
2023-03-18T08:22:39.619Z,99.90
2023-03-18T08:25:07.399Z,99.90
2023-03-18T08:27:34.357Z,99.90
2023-03-18T08:30:03.614Z,99.90
2023-03-18T08:32:31.112Z,99.30
2023-03-18T08:34:58.030Z,99.80
2023-03-18T08:37:24.983Z,99.90
2023-03-18T08:39:51.865Z,99.40
2023-03-18T08:42:19.178Z,99.30
2023-03-18T08:44:46.104Z,98.50
2023-03-18T08:47:13.248Z,98.50
2023-03-18T08:49:40.176Z,97.90
2023-03-18T08:52:10.527Z,98.30
2023-03-18T08:54:37.773Z,97.70
2023-03-18T08:57:04.904Z,97.60
2023-03-18T08:59:31.779Z,97.60
2023-03-18T09:01:58.624Z,97.90
2023-03-18T09:04:25.959Z,97.30
2023-03-18T09:06:52.856Z,97.10
2023-03-18T09:09:20.074Z,97.20
2023-03-18T09:11:47.888Z,96.50
2023-03-18T09:14:14.840Z,96.30
2023-03-18T09:16:41.719Z,96.20
2023-03-18T09:19:08.663Z,96.90
2023-03-18T09:21:35.994Z,97.20
2023-03-18T09:24:03.044Z,97.10
2023-03-18T09:26:29.936Z,97.20
2023-03-18T09:28:57.347Z,97.10
2023-03-18T09:31:24.555Z,97.10
2023-03-18T09:33:51.767Z,96.80
2023-03-18T09:36:19.522Z,96.70
2023-03-18T09:38:46.426Z,97.20
2023-03-18T09:41:43.870Z,96.40
2023-03-18T09:44:24.866Z,96.60
2023-03-18T09:47:21.316Z,97.20
2023-03-18T09:50:14.164Z,95.40
2023-03-18T09:53:05.448Z,95.90
2023-03-18T09:55:50.583Z,96.00
2023-03-18T09:58:56.309Z,96.70
2023-03-18T10:01:27.863Z,96.70
2023-03-18T10:04:11.079Z,96.40
2023-03-18T10:06:43.015Z,95.90
2023-03-18T10:09:23.399Z,97.20
2023-03-18T10:12:04.416Z,96.20
2023-03-18T10:14:42.438Z,95.40
2023-03-18T10:17:40.063Z,96.20
2023-03-18T10:20:32.416Z,96.20
2023-03-18T10:23:18.104Z,96.00
2023-03-18T10:25:57.173Z,94.70
2023-03-18T10:28:49.225Z,94.10
2023-03-18T10:31:41.816Z,93.90
2023-03-18T10:35:14.788Z,94.80
2023-03-18T10:38:09.987Z,94.90
2023-03-18T10:40:41.410Z,94.30
2023-03-18T10:43:31.750Z,94.40
2023-03-18T10:46:11.890Z,94.70
2023-03-18T10:48:59.158Z,95.10
2023-03-18T10:51:53.607Z,94.90
2023-03-18T10:54:52.678Z,94.70
2023-03-18T10:57:22.107Z,94.90
2023-03-18T10:59:52.586Z,94.90
2023-03-18T11:02:30.572Z,95.40
2023-03-18T11:05:05.465Z,95.90
2023-03-18T11:07:32.374Z,95.60
2023-03-18T11:10:16.559Z,94.60
2023-03-18T11:12:43.487Z,94.90
2023-03-18T11:15:20.370Z,94.80
2023-03-18T11:17:51.711Z,94.30
2023-03-18T11:20:43.178Z,95.00
2023-03-18T11:23:48.344Z,95.00
2023-03-18T11:26:47.765Z,94.80
2023-03-18T11:29:26.610Z,95.00
2023-03-18T11:31:58.416Z,94.80
2023-03-18T11:34:31.840Z,94.40
2023-03-18T11:37:05.587Z,94.30
2023-03-18T11:39:37.808Z,94.30
2023-03-18T11:42:22.029Z,94.70
2023-03-18T11:44:56.989Z,94.30
2023-03-18T11:47:30.179Z,94.10
2023-03-18T11:49:57.508Z,95.10
2023-03-18T11:52:45.221Z,94.50
2023-03-18T11:55:41.894Z,95.00
2023-03-18T11:58:40.021Z,95.40
2023-03-18T12:01:46.819Z,94.70
2023-03-18T12:04:23.403Z,93.90
2023-03-18T12:07:38.059Z,93.70
2023-03-18T12:10:30.187Z,93.20
2023-03-18T12:13:47.416Z,93.60
2023-03-18T12:16:46.117Z,93.50
2023-03-18T12:19:24.339Z,92.80
2023-03-18T12:22:21.084Z,93.10
2023-03-18T12:25:22.667Z,94.80
2023-03-18T12:28:10.950Z,92.80
2023-03-18T12:30:57.086Z,92.70
2023-03-18T12:33:43.393Z,93.40
2023-03-18T12:37:05.149Z,92.90
2023-03-18T12:39:57.217Z,92.70
2023-03-18T12:42:51.955Z,92.70
2023-03-18T12:45:30.321Z,92.30
2023-03-18T12:48:08.004Z,92.20
2023-03-18T12:50:43.841Z,92.90
2023-03-18T12:53:18.523Z,93.00
2023-03-18T12:56:01.697Z,92.70
2023-03-18T12:58:39.703Z,92.90
2023-03-18T13:01:19.267Z,92.80
2023-03-18T13:04:02.841Z,92.90
2023-03-18T13:06:52.697Z,92.20
2023-03-18T13:09:37.345Z,92.50
2023-03-18T13:12:14.469Z,93.10
2023-03-18T13:15:44.096Z,92.70
2023-03-18T13:18:28.914Z,92.90
2023-03-18T13:20:59.620Z,92.90
2023-03-18T13:24:17.506Z,93.80
2023-03-18T13:26:44.707Z,94.20
2023-03-18T13:29:34.991Z,93.10
2023-03-18T13:32:50.798Z,93.40
2023-03-18T13:36:08.697Z,93.00
2023-03-18T13:39:10.055Z,93.50
2023-03-18T13:42:07.006Z,93.10
2023-03-18T13:45:05.202Z,93.50
2023-03-18T13:47:37.724Z,94.30
2023-03-18T13:50:19.494Z,94.10
2023-03-18T13:52:48.840Z,94.10
2023-03-18T13:55:34.082Z,94.50
2023-03-18T13:58:22.722Z,93.70
2023-03-18T14:00:55.596Z,94.30
2023-03-18T14:03:42.436Z,94.50
2023-03-18T14:06:09.297Z,94.70
2023-03-18T14:08:53.480Z,94.90
2023-03-18T14:11:46.946Z,94.80
2023-03-18T14:14:41.830Z,94.50
2023-03-18T14:17:22.448Z,94.70
2023-03-18T14:19:54.756Z,95.10
2023-03-18T14:22:39.870Z,94.90
2023-03-18T14:25:14.516Z,94.90
2023-03-18T14:27:48.037Z,94.80
2023-03-18T14:31:13.900Z,94.90
2023-03-18T14:33:57.502Z,94.70
2023-03-18T14:36:45.812Z,94.90
2023-03-18T14:39:21.987Z,94.80
2023-03-18T14:41:57.425Z,94.50
2023-03-18T14:44:35.458Z,95.00
2023-03-18T14:47:25.337Z,94.70
2023-03-18T14:50:14.699Z,94.30
2023-03-18T14:52:47.960Z,94.80
2023-03-18T14:55:22.396Z,95.00
2023-03-18T14:57:51.052Z,94.60
2023-03-18T15:00:21.876Z,94.70
2023-03-18T15:03:14.594Z,94.50
2023-03-18T15:05:43.831Z,94.70
2023-03-18T15:08:19.574Z,94.80
2023-03-18T15:10:51.668Z,94.70
2023-03-18T15:13:24.359Z,95.30
2023-03-18T15:15:56.389Z,94.80
2023-03-18T15:18:34.495Z,95.00
2023-03-18T15:21:18.711Z,95.10
2023-03-18T15:23:48.940Z,95.20
2023-03-18T15:26:37.583Z,95.40
2023-03-18T15:29:33.461Z,95.30
2023-03-18T15:32:28.338Z,95.70
2023-03-18T15:35:19.146Z,95.80
2023-03-18T15:38:01.768Z,96.00
2023-03-18T15:40:32.928Z,96.20
2023-03-18T15:43:08.843Z,96.20
2023-03-18T15:45:40.872Z,96.20
2023-03-18T15:48:21.663Z,96.20
2023-03-18T15:50:55.435Z,95.80
2023-03-18T15:53:47.766Z,96.00
2023-03-18T15:56:29.611Z,95.50
2023-03-18T15:59:29.197Z,95.70
2023-03-18T16:02:00.598Z,95.60
2023-03-18T16:04:34.537Z,96.00
2023-03-18T16:07:01.456Z,95.30
2023-03-18T16:09:28.433Z,95.10
2023-03-18T16:12:20.678Z,95.30
2023-03-18T16:14:50.525Z,95.10
2023-03-18T16:17:21.758Z,95.10
2023-03-18T16:19:53.853Z,94.90
2023-03-18T16:22:23.689Z,95.10
2023-03-18T16:24:50.935Z,95.10
2023-03-18T16:27:40.479Z,95.10
2023-03-18T16:30:24.443Z,95.20
2023-03-18T16:32:53.008Z,95.30
2023-03-18T16:35:30.792Z,95.30
2023-03-18T16:37:59.444Z,95.50
2023-03-18T16:40:30.779Z,95.90
2023-03-18T16:42:57.877Z,95.90
2023-03-18T16:45:30.463Z,96.00
2023-03-18T16:48:05.618Z,96.10
2023-03-18T16:50:39.172Z,96.20
2023-03-18T16:53:29.778Z,96.30
2023-03-18T16:56:09.042Z,96.40
2023-03-18T16:58:37.468Z,97.00
2023-03-18T17:01:08.606Z,96.80
2023-03-18T17:03:37.151Z,96.50
2023-03-18T17:06:06.074Z,96.40
2023-03-18T17:08:34.096Z,96.50
2023-03-18T17:11:03.852Z,96.60
2023-03-18T17:13:35.091Z,96.80
2023-03-18T17:16:02.051Z,96.70
2023-03-18T17:18:29.001Z,96.90
2023-03-18T17:20:55.950Z,97.20
2023-03-18T17:23:27.063Z,97.00
2023-03-18T17:25:59.638Z,97.00
2023-03-18T17:28:43.596Z,97.30
2023-03-18T17:31:12.344Z,97.30
2023-03-18T17:33:39.799Z,97.30
2023-03-18T17:36:10.774Z,97.40
2023-03-18T17:38:37.908Z,97.60
2023-03-18T17:41:19.392Z,97.40
2023-03-18T17:43:47.169Z,97.30
2023-03-18T17:46:14.063Z,97.50
2023-03-18T17:48:41.150Z,97.60
2023-03-18T17:51:13.723Z,97.50
2023-03-18T17:53:59.010Z,97.50
2023-03-18T17:56:27.764Z,97.60
2023-03-18T17:58:55.172Z,97.60
2023-03-18T18:01:28.824Z,97.70
2023-03-18T18:03:59.270Z,97.80
2023-03-18T18:06:29.249Z,98.10
2023-03-18T18:09:00.213Z,97.80
2023-03-18T18:11:31.130Z,97.60
2023-03-18T18:14:14.742Z,97.80
2023-03-18T18:16:41.657Z,97.80
2023-03-18T18:19:13.476Z,97.80
2023-03-18T18:21:41.857Z,98.10
2023-03-18T18:24:27.815Z,97.80
2023-03-18T18:26:55.347Z,98.00
2023-03-18T18:29:26.464Z,97.90
2023-03-18T18:31:53.843Z,97.80
2023-03-18T18:34:21.483Z,97.90
2023-03-18T18:36:52.345Z,98.10
2023-03-18T18:39:19.615Z,98.20
2023-03-18T18:41:47.452Z,98.00
2023-03-18T18:44:16.145Z,98.20
2023-03-18T18:46:43.137Z,98.20
2023-03-18T18:49:22.244Z,98.30
2023-03-18T18:51:55.178Z,98.40
2023-03-18T18:54:23.460Z,98.40
2023-03-18T18:56:51.156Z,98.40
2023-03-18T18:59:28.633Z,98.80
2023-03-18T19:01:56.439Z,98.40
2023-03-18T19:04:23.743Z,98.60
2023-03-18T19:06:52.458Z,98.80
2023-03-18T19:09:25.936Z,98.90
2023-03-18T19:11:56.077Z,98.70
2023-03-18T19:14:28.695Z,98.80
2023-03-18T19:16:58.649Z,98.70
2023-03-18T19:19:37.787Z,98.80
2023-03-18T19:22:05.339Z,98.90
2023-03-18T19:24:37.965Z,98.50
2023-03-18T19:27:11.466Z,98.70
2023-03-18T19:29:38.500Z,98.70
2023-03-18T19:32:07.137Z,98.80
2023-03-18T19:34:35.271Z,98.40
2023-03-18T19:37:07.907Z,98.30
2023-03-18T19:39:34.972Z,98.20
2023-03-18T19:42:01.912Z,98.50
2023-03-18T19:44:28.775Z,98.70
2023-03-18T19:46:59.283Z,98.40
2023-03-18T19:49:33.595Z,98.50
2023-03-18T19:52:06.903Z,98.60
2023-03-18T19:54:37.440Z,98.90
2023-03-18T19:57:17.389Z,99.00
2023-03-18T19:59:47.812Z,99.10
2023-03-18T20:02:24.276Z,99.10
2023-03-18T20:04:54.345Z,99.10
2023-03-18T20:07:24.305Z,99.30
2023-03-18T20:09:51.371Z,99.10
2023-03-18T20:12:43.285Z,99.20
2023-03-18T20:15:29.457Z,99.20
2023-03-18T20:18:00.940Z,99.50
2023-03-18T20:20:33.746Z,99.70
2023-03-18T20:23:13.692Z,99.30
2023-03-18T20:25:44.728Z,99.60
2023-03-18T20:28:17.343Z,99.40
2023-03-18T20:30:46.074Z,99.30
2023-03-18T20:33:13.840Z,99.30
2023-03-18T20:35:44.633Z,99.40
2023-03-18T20:38:34.116Z,99.30
2023-03-18T20:41:01.869Z,99.30
2023-03-18T20:43:29.973Z,99.50
2023-03-18T20:45:59.984Z,99.60
2023-03-18T20:48:28.014Z,99.60
2023-03-18T20:50:55.454Z,99.70
2023-03-18T20:53:28.896Z,99.70
2023-03-18T20:55:57.073Z,99.70
2023-03-18T20:58:27.942Z,99.80
2023-03-18T21:00:55.361Z,99.90
2023-03-18T21:03:34.892Z,99.80
2023-03-18T21:06:06.912Z,99.90
2023-03-18T21:08:35.195Z,99.80
2023-03-18T21:11:03.194Z,99.70
2023-03-18T21:13:41.851Z,99.80
2023-03-18T21:16:15.812Z,99.70
2023-03-18T21:18:47.671Z,99.70
2023-03-18T21:21:31.348Z,99.70
2023-03-18T21:23:58.534Z,99.80
2023-03-18T21:26:25.683Z,99.90
2023-03-18T21:28:52.672Z,99.90
2023-03-18T21:31:31.149Z,99.90
2023-03-18T21:33:58.021Z,99.90
2023-03-18T21:36:25.992Z,99.90
2023-03-18T21:38:52.998Z,99.90
2023-03-18T21:41:28.461Z,99.90
2023-03-18T21:43:58.054Z,99.90
2023-03-18T21:46:27.223Z,99.90
2023-03-18T21:48:54.326Z,99.90
2023-03-18T21:51:39.056Z,99.90
2023-03-18T21:54:16.778Z,99.90
2023-03-18T21:56:43.839Z,99.90
2023-03-18T21:59:10.949Z,99.90
2023-03-18T22:01:38.091Z,99.90
2023-03-18T22:04:08.074Z,99.90
2023-03-18T22:06:35.149Z,99.90
2023-03-18T22:09:02.277Z,99.90
2023-03-18T22:11:29.226Z,99.90
2023-03-18T22:13:56.248Z,99.90
2023-03-18T22:16:23.256Z,99.90
2023-03-18T22:18:51.207Z,99.90
2023-03-18T22:21:27.604Z,99.90
2023-03-18T22:23:55.594Z,99.90
2023-03-18T22:26:22.792Z,99.90
2023-03-18T22:28:50.579Z,99.90
2023-03-18T22:31:26.879Z,99.90
2023-03-18T22:33:54.919Z,99.90
2023-03-18T22:36:22.585Z,99.90
2023-03-18T22:38:49.961Z,99.90
2023-03-18T22:41:29.259Z,99.90
2023-03-18T22:43:57.934Z,99.90
2023-03-18T22:46:24.806Z,99.90
2023-03-18T22:48:51.742Z,99.90
2023-03-18T22:51:41.612Z,99.90
2023-03-18T22:54:18.131Z,99.90
2023-03-18T22:56:45.016Z,99.90
2023-03-18T22:59:14.238Z,99.90
2023-03-18T23:01:41.205Z,99.90
2023-03-18T23:04:12.195Z,99.90
2023-03-18T23:06:39.160Z,99.90
2023-03-18T23:09:06.094Z,99.90
2023-03-18T23:11:34.792Z,99.90
2023-03-18T23:14:03.215Z,99.90
2023-03-18T23:16:30.336Z,99.90
2023-03-18T23:18:57.196Z,99.90
2023-03-18T23:21:26.074Z,99.90
2023-03-18T23:23:53.455Z,99.90
2023-03-18T23:26:20.955Z,99.90
2023-03-18T23:28:49.041Z,99.90
2023-03-18T23:31:16.563Z,99.90
2023-03-18T23:33:44.121Z,99.90
2023-03-18T23:36:11.930Z,99.90
2023-03-18T23:38:39.278Z,99.90
2023-03-18T23:41:14.742Z,99.90
2023-03-18T23:43:41.584Z,99.90
2023-03-18T23:46:08.606Z,99.90
2023-03-18T23:48:35.796Z,99.90
2023-03-18T23:51:02.687Z,99.90
2023-03-18T23:53:29.631Z,99.90
2023-03-18T23:55:56.728Z,99.90
2023-03-18T23:58:23.575Z,99.90
